Time;durP1;ratioP1;P1;durP2;ratioP2;P2;SDS_P1;SDS_P2;PMS_P1;PMS_P2;Temp;Humidity;BMP_temperature;BMP_pressure;BME280_temperature;BME280_humidity;BME280_pressure;Samples;Min_cycle;Max_cycle;Signal;HPM_P1;HPM_P2
2022/05/23 00:00:35;;;;;;;13.98;8.55;;;18.00;99.90;;;;;;5031557;28;20065;-85
2022/05/23 00:03:03;;;;;;;17.67;8.77;;;18.00;99.90;;;;;;5028135;28;20038;-85
2022/05/23 00:05:30;;;;;;;15.43;9.00;;;18.10;99.90;;;;;;5014896;28;20049;-83
2022/05/23 00:07:59;;;;;;;15.38;9.55;;;17.90;99.90;;;;;;5033550;28;20483;-87
2022/05/23 00:10:26;;;;;;;18.02;7.93;;;17.70;99.90;;;;;;5028636;28;20044;-81
2022/05/23 00:12:54;;;;;;;11.27;6.93;;;17.70;99.90;;;;;;5032179;28;20112;-84
2022/05/23 00:15:21;;;;;;;9.15;6.63;;;17.70;99.90;;;;;;5032043;28;20112;-83
2022/05/23 00:17:49;;;;;;;9.15;6.50;;;17.70;99.90;;;;;;5031948;28;20045;-81
2022/05/23 00:20:22;;;;;;;12.63;7.43;;;17.50;99.90;;;;;;5031581;28;20121;-82
2022/05/23 00:22:50;;;;;;;13.75;7.35;;;17.70;99.90;;;;;;5037778;28;20080;-77
2022/05/23 00:25:17;;;;;;;10.52;7.75;;;17.80;99.90;;;;;;5031499;28;20041;-86
2022/05/23 00:27:46;;;;;;;13.15;7.47;;;17.60;99.90;;;;;;5031629;28;20069;-82
2022/05/23 00:30:25;;;;;;;11.07;6.93;;;17.80;99.90;;;;;;5031760;28;20453;-82
2022/05/23 00:35:50;;;;;;;10.07;6.25;;;18.00;99.90;;;;;;5030404;28;20438;-80
2022/05/23 00:38:17;;;;;;;11.07;5.63;;;18.00;99.90;;;;;;5022006;28;20042;-84
2022/05/23 00:44:00;;;;;;;9.30;6.57;;;17.90;99.90;;;;;;5025174;28;20049;-84
2022/05/23 00:46:28;;;;;;;8.90;5.97;;;18.00;99.90;;;;;;5032327;28;20614;-84
2022/05/23 00:48:59;;;;;;;10.95;6.20;;;17.90;99.90;;;;;;5032547;28;20068;-76
2022/05/23 00:51:27;;;;;;;10.90;6.22;;;17.80;99.90;;;;;;5031261;28;20057;-81
2022/05/23 00:53:59;;;;;;;13.70;6.65;;;17.70;99.90;;;;;;5031497;28;20072;-88
2022/05/23 00:56:41;;;;;;;11.52;6.32;;;17.60;99.90;;;;;;5032789;28;20111;-86
2022/05/23 00:59:10;;;;;;;10.88;6.95;;;17.60;99.90;;;;;;5014962;28;20129;-83
2022/05/23 01:01:38;;;;;;;9.90;6.82;;;17.60;99.90;;;;;;5032167;28;20069;-80
2022/05/23 01:04:06;;;;;;;11.43;7.43;;;17.70;99.90;;;;;;5032582;28;20038;-86
2022/05/23 01:06:35;;;;;;;13.27;7.47;;;17.70;99.90;;;;;;5029831;28;20107;-84
2022/05/23 01:09:02;;;;;;;12.02;7.47;;;17.80;99.90;;;;;;5032556;28;20407;-87
2022/05/23 01:11:30;;;;;;;13.75;6.40;;;17.80;99.90;;;;;;5014399;28;20057;-80
2022/05/23 01:13:57;;;;;;;12.50;7.10;;;17.70;99.90;;;;;;5012535;28;20129;-85
2022/05/23 01:16:27;;;;;;;9.85;6.43;;;17.60;99.90;;;;;;5012317;28;20049;-82
2022/05/23 01:18:54;;;;;;;11.93;6.82;;;17.50;99.90;;;;;;5012220;28;20069;-80
2022/05/23 01:21:41;;;;;;;10.70;6.05;;;17.50;99.90;;;;;;5011281;28;20084;-80
2022/05/23 01:24:27;;;;;;;15.88;7.10;;;17.40;99.90;;;;;;5012006;28;20144;-87
2022/05/23 01:26:57;;;;;;;12.20;6.22;;;17.40;99.90;;;;;;5027256;28;20050;-81
2022/05/23 01:29:25;;;;;;;10.18;6.13;;;17.30;99.90;;;;;;5012576;28;20133;-82
2022/05/23 01:31:55;;;;;;;11.60;6.13;;;17.40;99.90;;;;;;5011980;28;20049;-82
2022/05/23 01:34:22;;;;;;;11.85;6.05;;;17.40;99.90;;;;;;5012097;28;20061;-84
2022/05/23 01:36:50;;;;;;;9.52;6.00;;;17.30;99.90;;;;;;5010566;28;20511;-82
2022/05/23 01:39:18;;;;;;;9.75;6.32;;;17.20;99.90;;;;;;5011929;28;20077;-83
2022/05/23 01:41:46;;;;;;;8.15;5.78;;;17.30;99.90;;;;;;5012507;28;20053;-81
2022/05/23 01:44:13;;;;;;;8.98;6.05;;;17.50;99.90;;;;;;5010967;28;20038;-79
2022/05/23 01:46:41;;;;;;;12.00;6.20;;;17.40;99.90;;;;;;5010207;28;20116;-76
2022/05/23 01:49:08;;;;;;;13.48;5.95;;;17.40;99.90;;;;;;5011957;28;20499;-86
2022/05/23 01:51:35;;;;;;;9.73;6.22;;;17.40;99.90;;;;;;5012122;28;20038;-80
2022/05/23 01:54:03;;;;;;;15.00;7.65;;;17.10;99.90;;;;;;5011192;28;20080;-84
2022/05/23 01:56:30;;;;;;;13.25;6.82;;;16.80;99.90;;;;;;5010437;28;20526;-83
2022/05/23 02:01:45;;;;;;;16.50;7.25;;;17.00;99.90;;;;;;5027174;28;20052;-80
2022/05/23 02:04:13;;;;;;;13.95;7.88;;;17.10;99.90;;;;;;5011635;28;20061;-78
2022/05/23 02:06:40;;;;;;;18.02;8.13;;;17.20;99.90;;;;;;5010341;28;20072;-81
2022/05/23 02:09:08;;;;;;;17.58;7.40;;;17.30;99.90;;;;;;4994705;28;20137;-78
2022/05/23 02:11:35;;;;;;;10.98;6.75;;;17.40;99.90;;;;;;5012883;28;20034;-86
2022/05/23 02:14:02;;;;;;;11.05;6.32;;;17.40;99.90;;;;;;5013067;28;20100;-83
2022/05/23 02:16:30;;;;;;;10.27;5.38;;;17.10;99.90;;;;;;5012418;28;20038;-84
2022/05/23 02:18:59;;;;;;;10.27;5.78;;;17.10;99.90;;;;;;5015569;28;20423;-78
2022/05/23 02:21:26;;;;;;;9.07;5.82;;;17.10;99.90;;;;;;5015713;28;20065;-81
2022/05/23 02:23:54;;;;;;;8.63;5.50;;;17.10;99.90;;;;;;5014286;28;20085;-81
2022/05/23 02:26:21;;;;;;;13.55;6.82;;;17.10;99.90;;;;;;5014454;28;20112;-75
2022/05/23 02:28:48;;;;;;;10.45;6.63;;;17.10;99.90;;;;;;5015584;28;20088;-83
2022/05/23 02:31:15;;;;;;;10.35;6.15;;;17.00;99.90;;;;;;5015649;28;20065;-86
2022/05/23 02:33:43;;;;;;;10.95;6.25;;;17.00;99.90;;;;;;5014980;28;20049;-83
2022/05/23 02:36:10;;;;;;;13.57;6.57;;;16.90;99.90;;;;;;5014763;28;20464;-78
2022/05/23 02:38:40;;;;;;;10.40;5.95;;;16.80;99.90;;;;;;5013765;28;20101;-77
2022/05/23 02:41:08;;;;;;;12.35;8.15;;;16.80;99.90;;;;;;4997692;28;20034;-77
2022/05/23 02:43:37;;;;;;;16.43;7.83;;;16.70;99.90;;;;;;5014400;28;20522;-80
2022/05/23 02:46:05;;;;;;;13.43;6.50;;;16.60;99.90;;;;;;5013373;28;20121;-81
2022/05/23 02:48:32;;;;;;;14.65;6.55;;;16.50;99.90;;;;;;5012761;28;20161;-77
2022/05/23 02:50:59;;;;;;;12.65;6.55;;;16.50;99.90;;;;;;5014232;28;20089;-79
2022/05/23 02:53:27;;;;;;;13.38;6.50;;;16.00;99.90;;;;;;5014009;28;20070;-82
2022/05/23 02:55:54;;;;;;;13.15;6.40;;;15.70;99.90;;;;;;5014510;28;20042;-81
2022/05/23 02:58:21;;;;;;;14.40;6.43;;;16.10;99.90;;;;;;5014457;28;20073;-83
2022/05/23 03:00:49;;;;;;;10.80;6.82;;;16.20;99.90;;;;;;5013722;28;20061;-79
2022/05/23 03:03:19;;;;;;;11.52;6.40;;;16.30;99.90;;;;;;5015239;28;20509;-80
2022/05/23 03:05:51;;;;;;;15.45;7.20;;;16.50;99.90;;;;;;5014128;28;20050;-80
2022/05/23 03:08:24;;;;;;;11.57;7.32;;;16.20;99.90;;;;;;5015284;28;20048;-82
2022/05/23 03:10:58;;;;;;;10.38;6.25;;;16.00;99.90;;;;;;5015765;28;20120;-82
2022/05/23 03:13:34;;;;;;;10.43;6.18;;;16.10;99.90;;;;;;5014790;28;20061;-88
2022/05/23 03:16:11;;;;;;;14.55;6.63;;;16.20;99.90;;;;;;5014455;28;20511;-87
2022/05/23 03:18:38;;;;;;;9.55;6.10;;;16.40;99.90;;;;;;5013771;28;20100;-88
2022/05/23 03:21:09;;;;;;;10.95;6.38;;;16.30;99.90;;;;;;5013514;28;20061;-87
2022/05/23 03:29:14;;;;;;;10.30;6.35;;;15.90;99.90;;;;;;5015132;28;20116;-87
2022/05/23 03:31:42;;;;;;;10.75;6.28;;;15.90;99.90;;;;;;4998203;28;20038;-85
2022/05/23 03:34:09;;;;;;;9.25;6.00;;;16.10;99.90;;;;;;5013858;28;20049;-79
2022/05/23 03:36:37;;;;;;;11.55;6.50;;;16.40;99.90;;;;;;5014319;28;20038;-87
2022/05/23 03:39:04;;;;;;;10.77;6.55;;;16.30;99.90;;;;;;5013673;28;20049;-88
2022/05/23 03:41:32;;;;;;;12.85;6.78;;;16.10;99.90;;;;;;5015477;28;20038;-87
2022/05/23 03:44:00;;;;;;;12.52;6.47;;;16.10;99.90;;;;;;5014527;28;20057;-85
2022/05/23 03:46:28;;;;;;;16.02;7.85;;;16.30;99.90;;;;;;5013806;28;20547;-91
2022/05/23 03:48:58;;;;;;;10.30;6.65;;;16.20;99.90;;;;;;5014867;28;20053;-87
2022/05/23 03:51:27;;;;;;;11.93;6.78;;;16.10;99.90;;;;;;5015649;28;20511;-85
2022/05/23 03:54:04;;;;;;;11.65;7.07;;;16.10;99.90;;;;;;5013739;28;20100;-87
2022/05/23 03:56:33;;;;;;;10.45;6.75;;;16.30;99.90;;;;;;5016007;28;20490;-85
2022/05/23 03:59:00;;;;;;;14.05;6.47;;;16.50;99.90;;;;;;5015570;28;20100;-89
2022/05/23 04:01:30;;;;;;;11.65;6.78;;;16.70;99.90;;;;;;5014661;28;20042;-85
2022/05/23 04:03:58;;;;;;;10.63;6.90;;;16.60;99.90;;;;;;4996860;28;20072;-87
2022/05/23 04:06:29;;;;;;;9.05;6.38;;;16.50;99.90;;;;;;5014861;28;20045;-84
2022/05/23 04:08:57;;;;;;;13.90;6.45;;;16.50;99.90;;;;;;5014537;28;20092;-87
2022/05/23 04:11:28;;;;;;;9.95;6.22;;;16.60;99.90;;;;;;5014227;28;20042;-87
2022/05/23 04:13:59;;;;;;;10.20;6.28;;;16.60;99.90;;;;;;5013973;28;20507;-87
2022/05/23 04:16:29;;;;;;;9.48;6.50;;;16.70;99.90;;;;;;5014194;28;20432;-77
2022/05/23 04:18:57;;;;;;;11.27;6.43;;;16.80;99.90;;;;;;4996458;28;20052;-80
2022/05/23 04:21:25;;;;;;;9.75;5.82;;;16.90;99.90;;;;;;5012451;28;20041;-85
2022/05/23 04:23:52;;;;;;;8.02;5.30;;;16.90;99.90;;;;;;5011887;28;20038;-85
2022/05/23 04:26:19;;;;;;;9.57;5.22;;;17.10;99.90;;;;;;5012816;28;20042;-85
2022/05/23 04:28:50;;;;;;;11.55;5.60;;;17.30;99.90;;;;;;5013477;28;20131;-79
2022/05/23 04:31:19;;;;;;;9.55;5.45;;;17.20;99.90;;;;;;5011779;28;20487;-77
2022/05/23 04:36:32;;;;;;;13.13;6.13;;;17.20;99.90;;;;;;5011639;28;20469;-79
2022/05/23 04:39:00;;;;;;;11.20;5.80;;;17.10;99.90;;;;;;5011359;28;20041;-80
2022/05/23 04:41:29;;;;;;;14.05;6.05;;;17.00;99.90;;;;;;5012776;28;20177;-79
2022/05/23 04:43:58;;;;;;;22.17;13.68;;;17.10;99.90;;;;;;5011546;28;20045;-87
2022/05/23 04:46:27;;;;;;;94.75;58.08;;;17.50;99.90;;;;;;5012655;28;20045;-79
2022/05/23 04:51:40;;;;;;;18.00;10.38;;;17.30;99.90;;;;;;5012363;28;20430;-80
2022/05/23 04:54:07;;;;;;;17.83;10.27;;;17.40;99.90;;;;;;5012371;28;20053;-78
2022/05/23 04:56:37;;;;;;;19.85;9.85;;;17.70;99.90;;;;;;5011473;28;20137;-81
2022/05/23 04:59:07;;;;;;;21.30;8.95;;;17.70;99.90;;;;;;5011017;28;20072;-82
2022/05/23 05:01:34;;;;;;;16.88;8.90;;;17.80;99.90;;;;;;5012337;28;20092;-82
2022/05/23 05:04:02;;;;;;;16.38;7.97;;;17.90;99.90;;;;;;5027716;28;20045;-80
2022/05/23 05:06:29;;;;;;;15.88;8.27;;;17.70;99.90;;;;;;5012606;28;20066;-78
2022/05/23 05:08:56;;;;;;;15.63;7.45;;;17.80;99.90;;;;;;5012202;28;20473;-78
2022/05/23 05:11:23;;;;;;;16.48;7.90;;;17.90;99.90;;;;;;4995176;28;20046;-79
2022/05/23 05:13:51;;;;;;;12.50;7.43;;;17.70;99.90;;;;;;5012086;28;20045;-78
2022/05/23 05:16:23;;;;;;;12.75;7.30;;;17.50;99.90;;;;;;5010819;28;20038;-81
2022/05/23 05:18:56;;;;;;;19.38;8.77;;;17.90;99.90;;;;;;5026865;28;20100;-83
2022/05/23 05:21:23;;;;;;;13.55;7.93;;;17.80;99.90;;;;;;5012574;28;20100;-81
2022/05/23 05:23:54;;;;;;;15.68;7.78;;;17.90;99.90;;;;;;5010718;28;20104;-84
2022/05/23 05:26:22;;;;;;;17.05;8.27;;;18.10;99.90;;;;;;5011272;28;20042;-80
2022/05/23 05:28:49;;;;;;;13.05;8.45;;;18.30;99.90;;;;;;5012548;28;20104;-79
2022/05/23 05:31:33;;;;;;;37.65;22.58;;;18.60;99.90;;;;;;4994925;28;20487;-79
2022/05/23 05:34:11;;;;;;;97.75;61.60;;;18.60;99.90;;;;;;5013077;28;20113;-86
2022/05/23 05:36:44;;;;;;;14.80;11.15;;;18.80;99.90;;;;;;5022657;28;20415;-80
2022/05/23 05:39:14;;;;;;;18.15;8.63;;;18.70;99.90;;;;;;5031663;28;20069;-84
2022/05/23 05:41:51;;;;;;;11.98;8.02;;;18.60;99.90;;;;;;5032270;28;20057;-83
2022/05/23 05:44:23;;;;;;;15.48;7.82;;;18.30;99.90;;;;;;5030230;28;20073;-85
2022/05/23 05:46:54;;;;;;;15.85;8.68;;;18.40;99.90;;;;;;5014409;28;20123;-84
2022/05/23 05:49:46;;;;;;;17.67;7.95;;;18.50;99.90;;;;;;5030599;28;20511;-75
2022/05/23 05:52:18;;;;;;;12.98;7.32;;;18.60;99.90;;;;;;5031514;28;20132;-85
2022/05/23 05:54:45;;;;;;;13.20;6.97;;;18.60;99.90;;;;;;5035803;28;20037;-78
2022/05/23 05:57:14;;;;;;;15.55;7.20;;;18.50;99.90;;;;;;5035601;28;20524;-78
2022/05/23 05:59:42;;;;;;;11.00;7.30;;;18.60;99.90;;;;;;5035831;28;20557;-85
2022/05/23 06:02:09;;;;;;;16.17;7.82;;;18.40;99.90;;;;;;5035656;28;20049;-77
2022/05/23 06:04:37;;;;;;;16.27;6.35;;;18.40;99.90;;;;;;5035524;28;20554;-82
2022/05/23 06:12:41;;;;;;;16.58;8.15;;;18.30;99.90;;;;;;5021718;28;20049;-81
2022/05/23 06:15:08;;;;;;;15.50;7.22;;;18.60;99.90;;;;;;5025204;28;20498;-81
2022/05/23 06:17:42;;;;;;;11.57;6.95;;;18.60;99.90;;;;;;5033801;28;20116;-80
2022/05/23 06:20:14;;;;;;;15.70;7.75;;;18.70;99.90;;;;;;5033837;28;20065;-85
2022/05/23 06:22:42;;;;;;;15.27;7.85;;;18.60;99.90;;;;;;4979026;28;20051;-79
2022/05/23 06:25:10;;;;;;;15.80;9.32;;;18.60;99.90;;;;;;4995997;28;20042;-80
2022/05/23 06:27:38;;;;;;;17.00;8.05;;;18.50;99.90;;;;;;4995651;28;20092;-80
2022/05/23 06:30:07;;;;;;;17.23;7.75;;;18.50;99.90;;;;;;4994941;28;20464;-78
2022/05/23 06:32:34;;;;;;;18.70;8.73;;;18.70;99.90;;;;;;4995708;28;20077;-82
2022/05/23 06:35:02;;;;;;;14.73;7.82;;;18.60;99.90;;;;;;4995882;28;20046;-78
2022/05/23 06:37:34;;;;;;;17.48;8.10;;;18.10;99.90;;;;;;4994616;28;20077;-79
2022/05/23 06:40:04;;;;;;;18.65;9.10;;;18.00;99.90;;;;;;4995709;28;20381;-78
2022/05/23 06:42:32;;;;;;;20.75;8.88;;;17.80;99.90;;;;;;4995000;28;20108;-77
2022/05/23 06:45:00;;;;;;;10.27;7.32;;;17.90;99.90;;;;;;4995185;28;20404;-78
2022/05/23 06:47:28;;;;;;;14.25;7.68;;;18.00;99.90;;;;;;4992936;28;20086;-78
2022/05/23 06:49:55;;;;;;;13.57;6.60;;;18.10;99.90;;;;;;5006387;28;20037;-79
2022/05/23 06:52:23;;;;;;;15.98;6.50;;;18.10;99.90;;;;;;5039706;28;20074;-76
2022/05/23 06:54:50;;;;;;;12.52;6.95;;;18.10;99.90;;;;;;5022722;28;20386;-78
2022/05/23 06:57:18;;;;;;;9.98;6.32;;;18.10;99.90;;;;;;5033099;28;20072;-78
2022/05/23 06:59:45;;;;;;;10.90;6.72;;;18.20;99.90;;;;;;5033153;28;20375;-79
2022/05/23 07:02:12;;;;;;;14.40;6.63;;;18.20;99.90;;;;;;5006800;28;20134;-77
2022/05/23 07:12:57;;;;;;;11.20;6.70;;;18.20;99.90;;;;;;5022963;28;20048;-78
2022/05/23 07:15:24;;;;;;;13.45;7.18;;;18.20;99.90;;;;;;5022897;28;20060;-79
2022/05/23 07:17:52;;;;;;;11.63;6.80;;;18.20;99.90;;;;;;5023635;28;20124;-78
2022/05/23 07:20:20;;;;;;;12.82;6.57;;;18.40;99.90;;;;;;5022962;28;20045;-79
2022/05/23 07:22:47;;;;;;;12.77;7.45;;;18.70;99.90;;;;;;5006622;28;20636;-79
2022/05/23 07:25:15;;;;;;;10.10;7.00;;;19.10;99.90;;;;;;5032396;28;20045;-80
2022/05/23 07:27:45;;;;;;;12.18;6.75;;;18.90;99.90;;;;;;5027042;28;20042;-79
2022/05/23 07:30:13;;;;;;;14.10;7.97;;;19.00;99.90;;;;;;5023134;28;20391;-80
2022/05/23 07:32:40;;;;;;;15.50;7.85;;;19.20;99.90;;;;;;5032031;28;20128;-77
2022/05/23 07:35:09;;;;;;;12.60;8.93;;;19.30;99.90;;;;;;5032279;28;20473;-77
2022/05/23 07:37:37;;;;;;;12.65;9.15;;;19.40;99.90;;;;;;5022671;28;20073;-77
2022/05/23 07:40:05;;;;;;;16.27;8.82;;;19.60;99.90;;;;;;5001267;28;20046;-77
2022/05/23 07:42:38;;;;;;;13.88;7.18;;;19.70;99.90;;;;;;5032241;28;20108;-81
2022/05/23 07:45:07;;;;;;;17.98;7.57;;;19.80;99.90;;;;;;5033438;28;20041;-81
2022/05/23 07:47:35;;;;;;;16.20;7.90;;;19.80;99.90;;;;;;5032084;28;20418;-80
2022/05/23 07:50:07;;;;;;;17.65;8.00;;;19.80;99.90;;;;;;5033520;28;20590;-79
2022/05/23 07:52:35;;;;;;;19.58;8.52;;;19.70;99.90;;;;;;5032877;28;20038;-82
2022/05/23 08:00:40;;;;;;;13.77;7.63;;;20.10;99.90;;;;;;5034580;28;20454;-77
2022/05/23 08:03:17;;;;;;;16.23;8.25;;;20.40;99.90;;;;;;5023063;28;20097;-91
2022/05/23 08:05:46;;;;;;;11.75;7.68;;;20.50;99.90;;;;;;5017098;28;20042;-82
2022/05/23 08:08:13;;;;;;;19.05;8.48;;;20.50;99.90;;;;;;5026686;28;20045;-91
2022/05/23 08:10:41;;;;;;;14.50;7.68;;;20.30;99.90;;;;;;5020579;28;20049;-81
2022/05/23 08:13:11;;;;;;;23.50;8.25;;;20.70;99.90;;;;;;5015907;28;20459;-80
2022/05/23 08:15:39;;;;;;;;;;;20.90;99.90;;;;;;5032275;28;20084;-80
2022/05/23 08:18:08;;;;;;;18.13;7.18;;;21.00;99.90;;;;;;5031527;28;19956;-76
2022/05/23 08:20:38;;;;;;;14.88;7.78;;;21.10;99.90;;;;;;5011692;28;20053;-81
2022/05/23 08:23:07;;;;;;;16.13;8.07;;;21.20;99.90;;;;;;5011970;28;20123;-77
2022/05/23 08:25:35;;;;;;;13.65;7.38;;;21.20;99.90;;;;;;4995754;28;20050;-81
2022/05/23 08:28:04;;;;;;;13.57;6.72;;;21.30;99.90;;;;;;5012567;28;20088;-77
2022/05/23 08:30:32;;;;;;;10.43;6.78;;;21.30;99.90;;;;;;5013024;28;20522;-79
2022/05/23 08:33:05;;;;;;;11.57;6.82;;;21.20;99.90;;;;;;5012713;28;20050;-80
2022/05/23 08:35:41;;;;;;;20.15;8.23;;;21.30;99.90;;;;;;4995701;28;20372;-79
2022/05/23 08:38:14;;;;;;;13.32;6.95;;;21.40;99.90;;;;;;5012094;28;20046;-77
2022/05/23 08:40:44;;;;;;;10.32;5.82;;;21.40;99.90;;;;;;4995335;28;20100;-77
2022/05/23 08:43:26;;;;;;;13.88;5.78;;;21.40;99.90;;;;;;5012438;28;20042;-78
2022/05/23 08:45:56;;;;;;;9.07;5.65;;;21.50;99.90;;;;;;5025521;28;20127;-80
2022/05/23 08:48:29;;;;;;;9.95;5.55;;;21.50;99.90;;;;;;5030496;28;20107;-79
2022/05/23 08:51:12;;;;;;;11.32;5.18;;;21.50;99.90;;;;;;5047818;28;20140;-78
2022/05/23 08:54:00;;;;;;;10.43;5.70;;;21.50;99.90;;;;;;5031048;28;20046;-78
2022/05/23 08:56:34;;;;;;;8.10;4.95;;;21.50;99.90;;;;;;5030561;28;20119;-78
2022/05/23 08:59:28;;;;;;;10.00;5.03;;;21.50;99.90;;;;;;5030638;28;20077;-81
2022/05/23 09:02:02;;;;;;;11.50;5.78;;;21.30;99.90;;;;;;5015304;28;20402;-79
2022/05/23 09:04:37;;;;;;;16.38;5.47;;;21.20;99.90;;;;;;5031125;28;20053;-79
2022/05/23 09:07:07;;;;;;;9.30;5.53;;;21.30;99.90;;;;;;5030612;28;20077;-78
2022/05/23 09:09:37;;;;;;;11.32;6.38;;;21.30;99.90;;;;;;5012168;28;20120;-81
2022/05/23 09:12:11;;;;;;;13.48;8.27;;;21.20;99.90;;;;;;5006412;28;20140;-85
2022/05/23 09:14:48;;;;;;;12.98;6.43;;;21.40;99.90;;;;;;5018042;28;20048;-82
2022/05/23 09:17:37;;;;;;;14.38;7.75;;;21.30;99.90;;;;;;5021866;28;20052;-80
2022/05/23 09:20:19;;;;;;;9.63;5.85;;;21.40;99.90;;;;;;5014392;28;20565;-80
2022/05/23 09:22:51;;;;;;;11.48;6.00;;;21.30;99.90;;;;;;5030827;28;20063;-78
2022/05/23 09:25:21;;;;;;;10.90;5.55;;;21.20;99.90;;;;;;5031747;28;20049;-81
2022/05/23 09:28:07;;;;;;;13.32;5.53;;;21.10;99.90;;;;;;5029653;28;20084;-79
2022/05/23 09:30:38;;;;;;;12.05;6.30;;;20.90;99.90;;;;;;5014707;28;20068;-82
2022/05/23 09:33:19;;;;;;;9.32;5.40;;;21.00;99.90;;;;;;5047305;28;20509;-82
2022/05/23 09:35:51;;;;;;;12.88;5.97;;;21.10;99.90;;;;;;5032013;28;20484;-83
2022/05/23 09:38:29;;;;;;;16.65;6.80;;;21.10;99.90;;;;;;5031547;28;20029;-79
2022/05/23 09:40:57;;;;;;;17.58;6.88;;;21.00;99.90;;;;;;5031857;28;20124;-80
2022/05/23 09:47:44;;;;;;;9.00;5.35;;;21.10;99.90;;;;;;5031482;28;20120;-79
2022/05/23 09:49:21;;;;;;;10.73;5.95;;;21.10;99.90;;;;;;5031823;28;20107;-77
2022/05/23 09:52:02;;;;;;;8.88;5.32;;;21.20;99.90;;;;;;5031813;28;20045;-86
2022/05/23 09:54:40;;;;;;;10.23;5.38;;;21.10;99.90;;;;;;5031414;28;20042;-78
2022/05/23 09:57:15;;;;;;;10.90;6.55;;;21.10;99.90;;;;;;5031430;28;20077;-77
2022/05/23 09:59:55;;;;;;;14.38;6.68;;;21.10;99.90;;;;;;5030423;28;20065;-77
2022/05/23 10:02:34;;;;;;;9.82;5.95;;;21.00;99.90;;;;;;5031223;28;20045;-79
2022/05/23 10:05:04;;;;;;;9.70;5.63;;;21.10;99.90;;;;;;5030892;28;20038;-78
2022/05/23 10:07:34;;;;;;;10.95;5.93;;;21.10;99.90;;;;;;5031223;28;20117;-78
2022/05/23 10:10:22;;;;;;;15.38;6.35;;;21.10;99.90;;;;;;5030626;28;20038;-80
2022/05/23 10:12:50;;;;;;;12.30;6.18;;;21.00;99.90;;;;;;5011374;28;20073;-76
2022/05/23 10:15:28;;;;;;;9.98;6.72;;;21.00;99.90;;;;;;5011193;28;20042;-77
2022/05/23 10:18:07;;;;;;;18.80;6.40;;;21.00;99.90;;;;;;5011257;28;20046;-79
2022/05/23 10:20:46;;;;;;;12.40;6.82;;;21.10;99.90;;;;;;5011428;28;20097;-81
2022/05/23 10:23:19;;;;;;;13.32;6.80;;;21.10;99.90;;;;;;4994347;28;20108;-79
2022/05/23 10:25:56;;;;;;;12.45;6.35;;;20.90;99.90;;;;;;5010561;28;20042;-88
2022/05/23 10:28:44;;;;;;;11.60;7.57;;;20.90;99.90;;;;;;5010068;28;20399;-81
2022/05/23 10:31:39;;;;;;;13.10;6.38;;;21.10;99.90;;;;;;5011370;28;20434;-78
2022/05/23 10:34:16;;;;;;;16.10;6.97;;;21.10;99.90;;;;;;5010195;28;20053;-80
2022/05/23 10:36:48;;;;;;;13.02;6.22;;;21.10;99.90;;;;;;5009934;28;20131;-80
2022/05/23 10:42:11;;;;;;;16.02;6.85;;;21.20;99.90;;;;;;5014331;28;20140;-80
2022/05/23 10:44:41;;;;;;;14.57;6.57;;;21.10;99.90;;;;;;4997566;28;20541;-81
2022/05/23 10:47:50;;;;;;;10.77;7.28;;;21.10;99.90;;;;;;5013217;28;20069;-82
2022/05/23 10:50:28;;;;;;;15.77;6.55;;;21.10;99.90;;;;;;5012068;28;20450;-78
2022/05/23 10:53:20;;;;;;;13.60;6.47;;;21.00;99.90;;;;;;5013937;28;20038;-80
2022/05/23 10:56:12;;;;;;;13.77;7.15;;;20.90;99.90;;;;;;5014647;28;20469;-79
2022/05/23 10:58:48;;;;;;;15.15;6.75;;;21.00;99.90;;;;;;5029901;28;20052;-80
2022/05/23 11:01:18;;;;;;;11.40;7.10;;;21.00;99.90;;;;;;5014485;28;20121;-76
2022/05/23 11:04:10;;;;;;;11.80;6.50;;;21.20;99.90;;;;;;5029444;28;20092;-78
2022/05/23 11:06:57;;;;;;;11.05;6.45;;;21.20;99.90;;;;;;5014451;28;20483;-78
2022/05/23 11:09:47;;;;;;;9.68;7.07;;;21.20;99.90;;;;;;5019658;28;20136;-74
2022/05/23 11:12:25;;;;;;;9.35;5.82;;;21.40;99.90;;;;;;5029239;28;20775;-79
2022/05/23 11:15:23;;;;;;;10.75;6.03;;;21.50;99.90;;;;;;5040346;28;20520;-78
2022/05/23 11:18:14;;;;;;;17.40;6.20;;;21.60;99.90;;;;;;5031881;28;20469;-87
2022/05/23 11:20:42;;;;;;;11.77;6.15;;;21.50;99.90;;;;;;5019569;28;20034;-84
2022/05/23 11:23:19;;;;;;;8.95;6.07;;;21.40;99.90;;;;;;5033320;28;20038;-76
2022/05/23 11:25:52;;;;;;;12.75;6.10;;;21.10;99.90;;;;;;5030108;28;20041;-79
2022/05/23 11:34:16;;;;;;;10.52;5.47;;;21.00;99.90;;;;;;5032673;28;20482;-79
2022/05/23 11:36:56;;;;;;;11.52;6.03;;;21.20;99.90;;;;;;5027886;28;20541;-81
2022/05/23 11:39:42;;;;;;;12.48;6.22;;;21.10;99.90;;;;;;5033184;28;20053;-83
2022/05/23 11:42:15;;;;;;;11.70;6.57;;;21.10;99.90;;;;;;5031184;28;20038;-83
2022/05/23 11:44:42;;;;;;;11.20;6.38;;;21.20;99.90;;;;;;5030763;28;20384;-79
2022/05/23 11:47:11;;;;;;;10.50;6.40;;;21.10;99.90;;;;;;5031386;28;20499;-77
2022/05/23 11:49:45;;;;;;;12.45;6.30;;;21.20;99.90;;;;;;5030931;28;20045;-76
2022/05/23 11:52:37;;;;;;;9.60;6.80;;;21.20;99.90;;;;;;5026211;28;20046;-80
2022/05/23 11:55:08;;;;;;;9.98;6.20;;;21.00;99.90;;;;;;5032606;28;20056;-75
2022/05/23 11:57:39;;;;;;;11.77;6.85;;;21.00;99.90;;;;;;5015591;28;20048;-81
2022/05/23 12:00:36;;;;;;;11.73;7.63;;;21.00;99.90;;;;;;5032120;28;20045;-82
2022/05/23 12:03:05;;;;;;;10.80;6.10;;;21.00;99.90;;;;;;5031527;28;20084;-82
2022/05/23 12:05:33;;;;;;;11.88;6.35;;;20.90;99.90;;;;;;5031012;28;20045;-80
2022/05/23 12:08:04;;;;;;;15.10;6.68;;;21.00;99.90;;;;;;5032525;28;20042;-80
2022/05/23 12:10:37;;;;;;;10.77;6.45;;;21.10;99.90;;;;;;5032222;28;20049;-82
2022/05/23 12:13:13;;;;;;;12.30;7.50;;;21.10;99.90;;;;;;5031110;28;20430;-81
2022/05/23 12:15:44;;;;;;;12.40;6.18;;;21.00;99.90;;;;;;5032354;28;20124;-79
2022/05/23 12:18:13;;;;;;;20.52;6.28;;;21.10;99.90;;;;;;5032547;28;20053;-82
2022/05/23 12:20:49;;;;;;;9.63;6.10;;;21.20;99.90;;;;;;5047421;28;20115;-82
2022/05/23 12:23:29;;;;;;;9.85;6.18;;;21.30;99.90;;;;;;5030967;28;20407;-78
2022/05/23 12:26:12;;;;;;;11.82;7.05;;;21.40;99.90;;;;;;5032307;28;20081;-80
2022/05/23 12:29:19;;;;;;;16.30;6.80;;;21.50;99.90;;;;;;5031210;28;20038;-81
2022/05/23 12:32:16;;;;;;;9.05;6.15;;;21.50;99.90;;;;;;5031990;28;20053;-82
2022/05/23 12:34:47;;;;;;;10.90;6.45;;;21.40;99.90;;;;;;5031010;28;20507;-81
2022/05/23 12:37:33;;;;;;;9.80;6.13;;;21.20;99.90;;;;;;5030743;28;20443;-81
2022/05/23 12:40:25;;;;;;;8.43;5.60;;;21.10;99.90;;;;;;5032143;28;20394;-81
2022/05/23 12:43:16;;;;;;;9.98;5.53;;;21.00;99.90;;;;;;5031626;28;20034;-84
2022/05/23 12:45:47;;;;;;;9.45;5.22;;;21.10;99.90;;;;;;5031781;28;20554;-84
2022/05/23 12:48:56;;;;;;;9.32;5.68;;;21.20;99.90;;;;;;5030794;28;20042;-85
2022/05/23 12:51:58;;;;;;;7.80;5.38;;;21.10;99.90;;;;;;5026554;28;20057;-84
2022/05/23 12:54:51;;;;;;;9.77;6.28;;;21.10;99.90;;;;;;5032004;28;20148;-84
2022/05/23 12:57:24;;;;;;;10.75;6.13;;;21.10;99.90;;;;;;5029027;28;20049;-84
2022/05/23 12:59:58;;;;;;;10.98;6.07;;;21.10;99.90;;;;;;5030483;28;20092;-84
2022/05/23 13:02:35;;;;;;;8.70;5.80;;;21.10;99.90;;;;;;5030696;28;20069;-84
2022/05/23 13:05:12;;;;;;;10.00;5.85;;;21.20;99.90;;;;;;5031607;28;20124;-83
2022/05/23 13:07:45;;;;;;;11.45;6.35;;;21.40;99.90;;;;;;5031254;28;20100;-85
2022/05/23 13:10:34;;;;;;;9.52;6.72;;;21.50;99.90;;;;;;5031768;28;20092;-84
2022/05/23 13:13:05;;;;;;;11.95;7.15;;;21.50;99.90;;;;;;5027412;28;20565;-83
2022/05/23 13:15:38;;;;;;;12.45;7.50;;;21.50;99.90;;;;;;5010505;28;20399;-82
2022/05/23 13:24:03;;;;;;;13.05;6.90;;;21.70;99.90;;;;;;5030411;28;20411;-81
2022/05/23 13:26:31;;;;;;;10.30;6.25;;;21.80;99.90;;;;;;5030899;28;20128;-82
2022/05/23 13:29:16;;;;;;;11.40;6.60;;;21.90;99.90;;;;;;5030499;28;20037;-82
2022/05/23 13:31:44;;;;;;;14.13;7.15;;;21.90;99.90;;;;;;5030937;28;20088;-82
2022/05/23 13:34:15;;;;;;;11.82;7.85;;;22.40;99.90;;;;;;5031988;28;20052;-82
2022/05/23 13:36:48;;;;;;;13.70;7.90;;;22.40;99.90;;;;;;5046524;28;20037;-80
2022/05/23 13:39:18;;;;;;;13.07;6.82;;;22.70;99.90;;;;;;5031736;28;20442;-81
2022/05/23 13:41:46;;;;;;;10.52;6.47;;;22.80;99.90;;;;;;5031171;28;20049;-82
2022/05/23 13:44:24;;;;;;;22.13;7.43;;;23.10;99.90;;;;;;5031661;28;20092;-82
2022/05/23 13:46:57;;;;;;;13.77;6.85;;;23.30;99.90;;;;;;5037407;28;20072;-82
2022/05/23 13:49:48;;;;;;;16.05;6.88;;;23.60;99.90;;;;;;4992069;28;20043;-82
2022/05/23 13:52:33;;;;;;;10.70;7.22;;;23.80;99.90;;;;;;4996025;28;20073;-79
2022/05/23 13:55:05;;;;;;;9.52;6.22;;;23.80;99.90;;;;;;5008234;28;20084;-83
2022/05/23 13:57:52;;;;;;;10.13;6.22;;;23.90;99.90;;;;;;5009688;28;20048;-84
2022/05/23 14:00:30;;;;;;;9.50;5.78;;;23.80;99.90;;;;;;5008204;28;20101;-81
2022/05/23 14:03:05;;;;;;;7.38;4.63;;;24.30;99.90;;;;;;5007548;28;20034;-81